createdAt,value
2018-12-03T00:00:29.972Z,8.67
2018-12-03T00:03:01.631Z,6.13
2018-12-03T00:05:30.045Z,7.63
2018-12-03T00:07:58.520Z,6.17
2018-12-03T00:10:27.071Z,7.37
2018-12-03T00:12:55.246Z,6.17
2018-12-03T00:15:23.525Z,7.20
2018-12-03T00:17:51.970Z,6.57
2018-12-03T00:20:20.455Z,5.83
2018-12-03T00:22:48.867Z,6.53
2018-12-03T00:25:17.164Z,7.03
2018-12-03T00:27:52.513Z,4.83
2018-12-03T00:30:21.109Z,5.80
2018-12-03T00:32:49.718Z,5.40
2018-12-03T00:35:18.063Z,5.80
2018-12-03T00:37:46.459Z,6.57
2018-12-03T00:40:14.835Z,4.53
2018-12-03T00:42:43.287Z,5.17
2018-12-03T00:45:11.833Z,4.73
2018-12-03T00:47:39.931Z,5.20
2018-12-03T00:50:08.487Z,4.73
2018-12-03T00:52:36.778Z,4.73
2018-12-03T00:55:06.286Z,4.33
2018-12-03T00:57:34.578Z,5.23
2018-12-03T01:00:03.045Z,4.50
2018-12-03T01:02:31.246Z,4.87
2018-12-03T01:04:59.660Z,4.97
2018-12-03T01:07:28.008Z,4.30
2018-12-03T01:09:56.453Z,6.63
2018-12-03T01:12:24.633Z,4.27
2018-12-03T01:14:53.080Z,4.23
2018-12-03T01:17:21.249Z,3.67
2018-12-03T01:19:49.455Z,4.03
2018-12-03T01:22:17.512Z,3.67
2018-12-03T01:24:45.770Z,4.23
2018-12-03T01:27:14.089Z,3.07
2018-12-03T01:29:42.316Z,4.80
2018-12-03T01:32:10.703Z,3.63
2018-12-03T01:34:39.008Z,3.63
2018-12-03T01:37:07.216Z,4.10
2018-12-03T01:39:35.461Z,4.27
2018-12-03T01:42:03.688Z,3.37
2018-12-03T01:44:31.975Z,2.93
2018-12-03T01:47:00.178Z,4.40
2018-12-03T01:49:28.563Z,4.13
2018-12-03T01:51:56.799Z,4.90
2018-12-03T01:54:25.187Z,3.73
2018-12-03T01:56:53.408Z,4.57
2018-12-03T01:59:21.360Z,3.60
2018-12-03T02:01:49.490Z,4.67
2018-12-03T02:04:17.911Z,5.07
2018-12-03T02:06:46.217Z,4.67
2018-12-03T02:09:14.640Z,5.23
2018-12-03T02:11:42.813Z,4.03
2018-12-03T02:14:10.984Z,3.13
2018-12-03T02:16:39.263Z,3.47
2018-12-03T02:19:07.680Z,3.63
2018-12-03T02:21:36.384Z,4.57
2018-12-03T02:24:04.900Z,3.93
2018-12-03T02:26:33.290Z,4.33
2018-12-03T02:29:01.642Z,4.03
2018-12-03T02:31:30.277Z,3.67
2018-12-03T02:33:58.662Z,4.40
2018-12-03T02:36:26.981Z,5.40
2018-12-03T02:38:55.576Z,3.77
2018-12-03T02:41:23.710Z,3.93
2018-12-03T02:43:52.003Z,4.87
2018-12-03T02:46:20.352Z,2.70
2018-12-03T02:48:48.649Z,4.23
2018-12-03T02:51:17.005Z,3.43
2018-12-03T02:53:45.363Z,3.27
2018-12-03T02:56:13.897Z,5.00
2018-12-03T02:58:42.435Z,4.00
2018-12-03T03:01:10.744Z,3.67
2018-12-03T03:03:39.002Z,3.63
2018-12-03T03:06:42.451Z,4.60
2018-12-03T03:09:11.870Z,3.77
2018-12-03T03:11:41.330Z,4.30
2018-12-03T03:14:10.783Z,4.30
2018-12-03T03:16:40.472Z,4.10
2018-12-03T03:19:09.731Z,5.13
2018-12-03T03:21:39.177Z,3.87
2018-12-03T03:24:08.576Z,4.27
2018-12-03T03:26:37.814Z,4.23
2018-12-03T03:29:07.608Z,3.80
2018-12-03T03:31:37.038Z,5.00
2018-12-03T03:34:06.429Z,3.93
2018-12-03T03:36:35.854Z,4.33
2018-12-03T03:39:07.902Z,3.67
2018-12-03T03:41:37.337Z,4.43
2018-12-03T03:44:07.381Z,4.03
2018-12-03T03:46:36.657Z,4.70
2018-12-03T03:49:06.019Z,3.10
2018-12-03T03:51:35.250Z,4.13
2018-12-03T03:54:04.673Z,3.93
2018-12-03T03:56:34.258Z,4.37
2018-12-03T03:59:03.697Z,4.57
2018-12-03T04:01:33.165Z,3.97
2018-12-03T04:04:02.825Z,5.10
2018-12-03T04:06:32.548Z,4.60
2018-12-03T04:09:02.357Z,2.63
2018-12-03T04:11:31.962Z,3.00
2018-12-03T04:14:01.404Z,3.93
2018-12-03T04:16:30.981Z,3.23
2018-12-03T04:19:00.781Z,3.77
2018-12-03T04:21:30.376Z,3.63
2018-12-03T04:23:59.906Z,3.93
2018-12-03T04:26:29.521Z,2.97
2018-12-03T04:28:59.099Z,3.83
2018-12-03T04:31:28.739Z,4.57
2018-12-03T04:33:58.149Z,3.27
2018-12-03T04:36:27.881Z,3.50
2018-12-03T04:38:57.348Z,3.50
2018-12-03T04:41:26.752Z,2.97
2018-12-03T04:43:56.478Z,3.87
2018-12-03T04:46:25.934Z,3.90
2018-12-03T04:48:55.555Z,3.57
2018-12-03T04:51:25.235Z,3.93
2018-12-03T04:53:54.676Z,3.50
2018-12-03T04:56:24.455Z,3.40
2018-12-03T04:58:54.281Z,3.33
2018-12-03T05:01:24.003Z,3.00
2018-12-03T05:03:53.687Z,4.37
2018-12-03T05:06:23.374Z,3.43
2018-12-03T05:08:52.867Z,3.73
2018-12-03T05:11:22.346Z,3.37
2018-12-03T05:13:51.968Z,2.93
2018-12-03T05:16:21.660Z,3.73
2018-12-03T05:18:51.042Z,3.20
2018-12-03T05:21:20.503Z,3.43
2018-12-03T05:23:50.081Z,3.13
2018-12-03T05:26:19.947Z,2.57
2018-12-03T05:28:49.485Z,2.60
2018-12-03T05:31:19.057Z,3.70
2018-12-03T05:33:48.457Z,3.50
2018-12-03T05:36:17.929Z,3.30
2018-12-03T05:38:47.758Z,3.53
2018-12-03T05:41:17.313Z,3.00
2018-12-03T05:43:47.024Z,2.77
2018-12-03T05:46:16.801Z,3.27
2018-12-03T05:48:46.565Z,3.67
2018-12-03T05:51:17.166Z,3.37
2018-12-03T05:53:46.848Z,3.60
2018-12-03T05:56:16.723Z,3.17
2018-12-03T05:58:46.537Z,3.03
2018-12-03T06:01:16.498Z,2.23
2018-12-03T06:03:46.628Z,3.30
2018-12-03T06:06:16.169Z,3.60
2018-12-03T06:08:45.612Z,3.63
2018-12-03T06:11:15.327Z,3.13
2018-12-03T06:13:45.066Z,4.13
2018-12-03T06:16:14.975Z,3.93
2018-12-03T06:18:45.062Z,3.03
2018-12-03T06:21:14.922Z,3.97
2018-12-03T06:23:44.610Z,3.13
2018-12-03T06:26:14.329Z,3.90
2018-12-03T06:28:44.041Z,4.37
2018-12-03T06:31:14.052Z,3.50
2018-12-03T06:33:44.203Z,3.70
2018-12-03T06:36:13.718Z,3.90
2018-12-03T06:38:43.879Z,3.80
2018-12-03T06:41:13.919Z,4.20
2018-12-03T06:43:43.585Z,3.10
2018-12-03T06:46:13.132Z,3.50
2018-12-03T06:48:42.563Z,5.30
2018-12-03T06:51:12.015Z,3.53
2018-12-03T06:53:41.647Z,4.73
2018-12-03T06:56:11.205Z,4.93
2018-12-03T06:58:40.638Z,5.47
2018-12-03T07:01:10.371Z,5.27
2018-12-03T07:03:39.838Z,5.73
2018-12-03T07:06:09.162Z,4.63
2018-12-03T07:08:38.487Z,5.37
2018-12-03T07:11:08.002Z,4.80
2018-12-03T07:13:37.507Z,4.30
2018-12-03T07:16:07.188Z,4.67
2018-12-03T07:18:36.738Z,5.27
2018-12-03T07:21:06.481Z,3.77
2018-12-03T07:23:35.824Z,4.33
2018-12-03T07:26:05.341Z,5.87
2018-12-03T07:28:34.915Z,5.47
2018-12-03T07:31:04.582Z,4.57
2018-12-03T07:33:34.199Z,6.50
2018-12-03T07:36:03.780Z,6.17
2018-12-03T07:38:33.706Z,7.27
2018-12-03T07:41:03.204Z,4.17
2018-12-03T07:43:32.478Z,6.90
2018-12-03T07:50:35.533Z,7.00
2018-12-03T07:53:04.288Z,7.13
2018-12-03T07:55:32.901Z,6.47
2018-12-03T07:58:11.954Z,6.50
2018-12-03T08:00:46.222Z,6.57
2018-12-03T08:03:15.402Z,5.00
2018-12-03T08:05:44.093Z,6.77
2018-12-03T08:08:12.870Z,6.97
2018-12-03T08:10:42.826Z,3.63
2018-12-03T08:13:12.256Z,5.03
2018-12-03T08:15:40.775Z,5.67
2018-12-03T08:18:10.982Z,4.67
2018-12-03T08:20:53.461Z,5.77
2018-12-03T08:23:33.955Z,5.73
2018-12-03T08:26:03.133Z,4.00
2018-12-03T08:28:31.885Z,5.80
2018-12-03T08:31:00.473Z,5.73
2018-12-03T08:33:29.285Z,4.70
2018-12-03T08:35:57.895Z,7.07
2018-12-03T08:38:26.753Z,6.90
2018-12-03T08:40:55.384Z,6.77
2018-12-03T08:43:24.924Z,7.17
2018-12-03T08:45:58.555Z,5.87
2018-12-03T08:48:32.344Z,7.83
2018-12-03T08:51:00.838Z,5.77
2018-12-03T08:53:29.507Z,7.30
2018-12-03T08:55:57.945Z,7.10
2018-12-03T08:58:26.301Z,8.03
2018-12-03T09:00:54.842Z,7.00
2018-12-03T09:03:25.561Z,5.30
2018-12-03T09:05:54.059Z,7.37
2018-12-03T09:08:22.955Z,5.67
2018-12-03T09:10:51.754Z,6.20
2018-12-03T09:13:23.322Z,7.50
2018-12-03T09:15:54.590Z,5.80
2018-12-03T09:18:23.686Z,7.47
2018-12-03T09:20:52.212Z,8.33
2018-12-03T09:23:20.764Z,6.90
2018-12-03T09:25:49.501Z,6.80
2018-12-03T09:28:18.167Z,7.27
2018-12-03T09:30:46.973Z,6.67
2018-12-03T09:33:15.771Z,7.43
2018-12-03T09:35:44.423Z,7.13
2018-12-03T09:38:12.706Z,7.57
2018-12-03T09:40:41.568Z,7.90
2018-12-03T09:43:10.216Z,7.87
2018-12-03T09:45:38.827Z,7.70
2018-12-03T09:48:07.556Z,8.03
2018-12-03T09:50:36.083Z,7.10
2018-12-03T09:53:05.129Z,8.63
2018-12-03T09:55:33.913Z,7.90
2018-12-03T09:58:08.671Z,9.73
2018-12-03T10:00:37.326Z,8.97
2018-12-03T10:03:22.321Z,9.00
2018-12-03T10:05:52.352Z,9.20
2018-12-03T10:08:24.893Z,8.27
2018-12-03T10:10:58.198Z,8.17
2018-12-03T10:13:27.426Z,7.63
2018-12-03T10:15:56.179Z,8.67
2018-12-03T10:18:24.848Z,10.13
2018-12-03T10:20:55.169Z,7.93
2018-12-03T10:23:23.940Z,12.50
2018-12-03T10:25:54.408Z,8.83
2018-12-03T10:28:23.366Z,10.87
2018-12-03T10:30:52.967Z,9.77
2018-12-03T10:33:23.621Z,11.53
2018-12-03T10:35:52.872Z,9.13
2018-12-03T10:38:23.822Z,11.17
2018-12-03T10:40:55.888Z,11.17
2018-12-03T10:43:24.371Z,8.83
2018-12-03T10:45:52.499Z,9.40
2018-12-03T10:48:20.872Z,9.67
2018-12-03T10:50:49.323Z,11.03
2018-12-03T10:53:25.067Z,9.63
2018-12-03T10:55:53.974Z,8.87
2018-12-03T10:58:22.394Z,9.97
2018-12-03T11:01:03.368Z,10.30
2018-12-03T11:03:37.341Z,9.00
2018-12-03T11:06:11.178Z,9.33
2018-12-03T11:08:39.636Z,10.10
2018-12-03T11:11:08.169Z,10.73
2018-12-03T11:13:36.656Z,9.90
2018-12-03T11:16:05.924Z,11.80
2018-12-03T11:18:43.094Z,10.27
2018-12-03T11:21:11.741Z,11.13
2018-12-03T11:23:40.357Z,10.07
2018-12-03T11:26:08.805Z,10.63
2018-12-03T11:28:43.659Z,12.43
2018-12-03T11:31:19.687Z,10.50
2018-12-03T11:33:48.548Z,10.50
2018-12-03T11:36:22.172Z,10.10
2018-12-03T11:39:57.514Z,12.40
2018-12-03T11:42:28.213Z,11.87
2018-12-03T11:44:56.851Z,12.03
2018-12-03T11:47:25.453Z,13.67
2018-12-03T11:49:53.804Z,11.30
2018-12-03T11:52:22.242Z,11.30
2018-12-03T11:54:50.670Z,10.10
2018-12-03T11:57:19.420Z,10.97
2018-12-03T11:59:48.033Z,11.33
2018-12-03T12:02:16.555Z,11.43
2018-12-03T12:04:45.293Z,12.20
2018-12-03T12:07:13.287Z,13.13
2018-12-03T12:09:42.196Z,12.73
2018-12-03T12:12:10.591Z,12.47
2018-12-03T12:14:39.243Z,11.07
2018-12-03T12:17:07.660Z,13.30
2018-12-03T12:19:36.365Z,12.03
2018-12-03T12:22:05.127Z,12.70
2018-12-03T12:24:33.978Z,13.50
2018-12-03T12:27:02.408Z,13.33
2018-12-03T12:29:30.754Z,13.83
2018-12-03T12:31:59.207Z,10.87
2018-12-03T12:34:27.949Z,9.70
2018-12-03T12:36:56.489Z,12.17
2018-12-03T12:39:24.869Z,12.43
2018-12-03T12:41:53.227Z,13.17
2018-12-03T12:44:22.675Z,12.70
2018-12-03T12:46:52.016Z,12.87
2018-12-03T12:49:20.247Z,11.97
2018-12-03T12:51:51.574Z,10.97
2018-12-03T12:54:19.056Z,12.07
2018-12-03T12:56:47.491Z,10.33
2018-12-03T12:59:15.908Z,12.17
2018-12-03T13:01:44.616Z,13.23
2018-12-03T13:04:12.917Z,11.53
2018-12-03T13:06:41.361Z,11.40
2018-12-03T13:09:10.593Z,11.37
2018-12-03T13:11:39.507Z,12.17
2018-12-03T13:14:09.470Z,12.00
2018-12-03T13:16:38.014Z,12.60
2018-12-03T13:19:07.585Z,10.13
2018-12-03T13:21:35.848Z,11.20
2018-12-03T13:24:04.098Z,11.13
2018-12-03T13:26:33.289Z,10.93
2018-12-03T13:29:01.635Z,11.00
2018-12-03T13:31:30.109Z,10.60
2018-12-03T13:33:58.233Z,11.93
2018-12-03T13:36:26.618Z,11.83
2018-12-03T13:38:55.190Z,10.40
2018-12-03T13:41:23.569Z,12.10
2018-12-03T13:43:52.285Z,9.60
2018-12-03T13:46:20.701Z,11.80
2018-12-03T13:48:49.194Z,11.23
2018-12-03T13:51:17.527Z,10.60
2018-12-03T13:53:45.719Z,8.80
2018-12-03T13:56:14.057Z,10.47
2018-12-03T13:58:42.361Z,8.33
2018-12-03T14:01:10.589Z,9.40
2018-12-03T14:03:40.076Z,10.13
2018-12-03T14:06:25.169Z,10.37
2018-12-03T14:09:07.239Z,9.20
2018-12-03T14:11:56.752Z,11.37
2018-12-03T14:16:42.603Z,9.97
2018-12-03T14:19:14.302Z,9.37
2018-12-03T14:21:46.305Z,9.33
2018-12-03T14:24:17.410Z,7.03
2018-12-03T14:26:46.001Z,9.47
2018-12-03T14:29:14.370Z,8.83
2018-12-03T14:31:42.755Z,8.63
2018-12-03T14:34:18.686Z,9.20
2018-12-03T14:36:46.997Z,9.03
2018-12-03T14:39:15.230Z,7.10
2018-12-03T14:41:43.681Z,8.77
2018-12-03T14:44:12.055Z,7.00
2018-12-03T14:46:40.579Z,7.63
2018-12-03T14:49:09.284Z,11.23
2018-12-03T14:51:37.571Z,7.60
2018-12-03T14:54:06.078Z,7.60
2018-12-03T14:56:34.598Z,9.43
2018-12-03T14:59:02.936Z,24.03
2018-12-03T15:01:31.115Z,16.97
2018-12-03T15:04:01.828Z,14.87
2018-12-03T15:06:30.570Z,9.70
2018-12-03T15:08:59.006Z,9.77
2018-12-03T15:11:27.579Z,9.83
2018-12-03T15:13:56.245Z,8.40
2018-12-03T15:16:24.815Z,9.83
2018-12-03T15:18:53.799Z,8.63
2018-12-03T15:21:22.102Z,6.93
2018-12-03T15:23:50.282Z,7.40
2018-12-03T15:26:18.944Z,7.10
2018-12-03T15:28:47.542Z,6.37
2018-12-03T15:31:15.844Z,7.87
2018-12-03T15:33:44.160Z,7.40
2018-12-03T15:36:12.665Z,7.50
2018-12-03T15:38:41.374Z,6.80
2018-12-03T15:41:09.837Z,7.10
2018-12-03T15:43:38.953Z,7.17
2018-12-03T15:46:07.476Z,6.60
2018-12-03T15:48:35.898Z,7.00
2018-12-03T15:51:04.264Z,6.90
2018-12-03T15:53:32.555Z,6.63
2018-12-03T15:56:00.805Z,6.30
2018-12-03T15:58:28.773Z,6.60
2018-12-03T16:00:57.114Z,6.87
2018-12-03T16:03:25.494Z,6.63
2018-12-03T16:05:54.497Z,6.47
2018-12-03T16:08:22.906Z,5.87
2018-12-03T16:10:51.310Z,7.90
2018-12-03T16:13:19.642Z,5.40
2018-12-03T16:15:48.039Z,6.83
2018-12-03T16:18:16.308Z,7.57
2018-12-03T16:20:44.859Z,5.70
2018-12-03T16:23:13.236Z,7.63
2018-12-03T16:25:41.793Z,6.07
2018-12-03T16:28:10.267Z,6.63
2018-12-03T16:30:38.545Z,6.63
2018-12-03T16:33:06.851Z,6.57
2018-12-03T16:35:36.259Z,6.30
2018-12-03T16:38:04.808Z,5.93
2018-12-03T16:40:33.698Z,5.33
2018-12-03T16:43:02.077Z,6.60
2018-12-03T16:45:30.744Z,9.57
2018-12-03T16:47:59.228Z,13.60
2018-12-03T16:50:27.568Z,11.27
2018-12-03T16:52:56.068Z,8.83
2018-12-03T16:55:24.725Z,8.23
2018-12-03T16:57:53.214Z,9.93
2018-12-03T17:00:21.646Z,9.70
2018-12-03T17:02:49.656Z,7.00
2018-12-03T17:05:18.131Z,9.87
2018-12-03T17:07:46.634Z,8.03
2018-12-03T17:10:16.505Z,8.43
2018-12-03T17:12:44.826Z,6.73
2018-12-03T17:15:13.094Z,8.07
2018-12-03T17:17:41.743Z,7.13
2018-12-03T17:20:14.841Z,7.30
2018-12-03T17:22:59.995Z,7.07
2018-12-03T17:25:28.535Z,8.57
2018-12-03T17:27:57.094Z,6.57
2018-12-03T17:30:25.851Z,8.53
2018-12-03T17:32:54.191Z,8.37
2018-12-03T17:35:22.693Z,8.83
2018-12-03T17:37:51.587Z,12.77
2018-12-03T17:40:19.815Z,14.80
2018-12-03T17:42:48.163Z,15.13
2018-12-03T17:45:16.601Z,11.50
2018-12-03T17:47:44.710Z,10.47
2018-12-03T17:50:13.052Z,8.83
2018-12-03T17:52:41.458Z,9.70
2018-12-03T17:55:09.643Z,10.77
2018-12-03T17:57:37.929Z,9.53
2018-12-03T18:00:10.183Z,9.20
2018-12-03T18:02:38.381Z,7.80
2018-12-03T18:05:06.665Z,12.93
2018-12-03T18:07:34.949Z,9.73
2018-12-03T18:10:03.293Z,8.07
2018-12-03T18:12:31.713Z,10.43
2018-12-03T18:15:00.244Z,9.30
2018-12-03T18:17:28.457Z,8.33
2018-12-03T18:19:56.899Z,7.97
2018-12-03T18:22:25.253Z,8.50
2018-12-03T18:24:53.578Z,7.47
2018-12-03T18:27:22.140Z,9.00
2018-12-03T18:29:50.556Z,6.73
2018-12-03T18:32:19.151Z,7.43
2018-12-03T18:34:47.584Z,7.17
2018-12-03T18:37:16.096Z,6.80
2018-12-03T18:39:44.301Z,5.37
2018-12-03T18:42:12.839Z,5.27
2018-12-03T18:44:41.466Z,5.77
2018-12-03T18:47:10.054Z,5.73
2018-12-03T18:49:41.649Z,6.70
2018-12-03T18:52:11.220Z,6.67
2018-12-03T18:54:39.733Z,6.07
2018-12-03T18:57:07.928Z,5.87
2018-12-03T18:59:36.363Z,5.07
2018-12-03T19:02:04.841Z,6.53
2018-12-03T19:04:33.451Z,7.23
2018-12-03T19:07:01.788Z,6.37
2018-12-03T19:09:30.403Z,6.57
2018-12-03T19:11:59.109Z,6.20
2018-12-03T19:14:27.995Z,9.07
2018-12-03T19:16:56.581Z,9.83
2018-12-03T19:19:25.283Z,7.93
2018-12-03T19:21:53.962Z,7.53
2018-12-03T19:24:22.489Z,7.33
2018-12-03T19:26:51.128Z,7.80
2018-12-03T19:29:19.700Z,5.90
2018-12-03T19:31:48.161Z,7.13
2018-12-03T19:34:16.501Z,7.10
2018-12-03T19:36:45.131Z,6.40
2018-12-03T19:39:13.807Z,6.40
2018-12-03T19:41:42.248Z,6.60
2018-12-03T19:44:11.017Z,6.40
2018-12-03T19:46:39.778Z,5.77
2018-12-03T19:49:08.364Z,5.40
2018-12-03T19:51:37.787Z,6.80
2018-12-03T19:54:06.333Z,6.77
2018-12-03T19:56:34.904Z,6.10
2018-12-03T19:59:03.460Z,5.20
2018-12-03T20:01:32.350Z,5.07
2018-12-03T20:04:00.696Z,5.50
2018-12-03T20:06:29.115Z,5.03
2018-12-03T20:08:57.745Z,4.00
2018-12-03T20:11:28.134Z,5.37
2018-12-03T20:13:57.183Z,5.27
2018-12-03T20:16:26.293Z,6.00
2018-12-03T20:18:55.054Z,6.27
2018-12-03T20:21:24.973Z,6.60
2018-12-03T20:23:56.661Z,5.03
2018-12-03T20:26:28.846Z,7.57
2018-12-03T20:30:14.684Z,6.23
2018-12-03T20:33:16.525Z,5.30
2018-12-03T20:36:28.853Z,8.80
2018-12-03T20:41:09.151Z,6.57
2018-12-03T20:43:38.724Z,6.57
2018-12-03T20:47:13.846Z,6.23
2018-12-03T20:50:23.403Z,5.70
2018-12-03T20:52:51.986Z,5.20
2018-12-03T20:55:23.178Z,5.77
2018-12-03T20:57:51.626Z,6.27
2018-12-03T21:00:20.819Z,5.63
2018-12-03T21:02:51.883Z,14.97
2018-12-03T21:05:20.340Z,13.67
2018-12-03T21:07:48.936Z,21.60
2018-12-03T21:10:17.446Z,19.07
2018-12-03T21:12:45.855Z,17.43
2018-12-03T21:15:14.361Z,14.90
2018-12-03T21:17:42.504Z,15.10
2018-12-03T21:20:24.852Z,9.33
2018-12-03T21:22:53.439Z,9.90
2018-12-03T21:25:21.814Z,9.13
2018-12-03T21:27:50.285Z,7.67
2018-12-03T21:30:19.285Z,7.80
2018-12-03T21:32:47.587Z,7.13
2018-12-03T21:35:16.040Z,5.17
2018-12-03T21:37:44.630Z,6.93
2018-12-03T21:40:13.008Z,5.47
2018-12-03T21:42:41.610Z,5.00
2018-12-03T21:45:10.074Z,4.67
2018-12-03T21:47:38.332Z,5.00
2018-12-03T21:50:07.293Z,5.77
2018-12-03T21:52:35.800Z,4.57
2018-12-03T21:55:04.894Z,5.20
2018-12-03T21:57:33.201Z,3.63
2018-12-03T22:00:01.711Z,6.87
2018-12-03T22:02:30.046Z,4.27
2018-12-03T22:04:58.485Z,5.03
2018-12-03T22:07:26.914Z,4.60
2018-12-03T22:09:55.369Z,4.47
2018-12-03T22:12:23.632Z,5.03
2018-12-03T22:14:51.933Z,4.23
2018-12-03T22:17:20.416Z,4.63
2018-12-03T22:19:48.752Z,4.80
2018-12-03T22:22:17.280Z,3.93
2018-12-03T22:24:45.618Z,6.33
2018-12-03T22:27:14.019Z,4.13
2018-12-03T22:29:42.422Z,5.07
2018-12-03T22:32:10.688Z,5.83
2018-12-03T22:34:39.219Z,5.10
2018-12-03T22:37:07.865Z,5.07
2018-12-03T22:39:36.436Z,4.03
2018-12-03T22:42:04.872Z,5.23
2018-12-03T22:44:33.141Z,4.27
2018-12-03T22:47:01.948Z,4.80
2018-12-03T22:49:30.653Z,4.73
2018-12-03T22:51:59.268Z,4.13
2018-12-03T22:54:27.670Z,5.60
2018-12-03T22:56:56.157Z,6.33
2018-12-03T22:59:24.684Z,3.67
2018-12-03T23:01:53.289Z,5.27
2018-12-03T23:04:21.665Z,5.57
2018-12-03T23:06:50.031Z,4.87
2018-12-03T23:09:18.379Z,4.23
2018-12-03T23:11:46.978Z,4.00
2018-12-03T23:14:15.538Z,3.57
2018-12-03T23:16:43.953Z,4.53
2018-12-03T23:19:12.541Z,3.77
2018-12-03T23:21:40.916Z,4.77
2018-12-03T23:24:09.416Z,4.10
2018-12-03T23:26:37.879Z,4.13
2018-12-03T23:29:06.218Z,4.13
2018-12-03T23:31:34.749Z,3.73
2018-12-03T23:34:03.035Z,5.53
2018-12-03T23:36:31.364Z,3.07
2018-12-03T23:39:00.037Z,3.43
2018-12-03T23:41:28.459Z,3.27
2018-12-03T23:43:56.853Z,3.87
2018-12-03T23:46:25.974Z,3.43
2018-12-03T23:48:54.493Z,2.77
2018-12-03T23:51:22.858Z,4.23
2018-12-03T23:53:51.350Z,4.37
2018-12-03T23:56:19.875Z,4.37
2018-12-03T23:58:48.109Z,5.23
